createdAt,value
2023-02-09T00:01:20.775Z,1.43
2023-02-09T00:03:47.384Z,1.43
2023-02-09T00:06:17.588Z,1.54
2023-02-09T00:08:44.801Z,1.52
2023-02-09T00:11:18.664Z,1.56
2023-02-09T00:13:45.464Z,1.39
2023-02-09T00:16:12.152Z,1.24
2023-02-09T00:18:38.716Z,1.13
2023-02-09T00:21:08.752Z,1.06
2023-02-09T00:23:38.691Z,0.81
2023-02-09T00:26:08.797Z,0.69
2023-02-09T00:28:36.021Z,0.56
2023-02-09T00:31:10.644Z,0.63
2023-02-09T00:33:39.911Z,0.63
2023-02-09T00:36:12.309Z,0.55
2023-02-09T00:38:39.204Z,0.51
2023-02-09T00:41:06.372Z,0.62
2023-02-09T00:43:33.569Z,0.76
2023-02-09T00:46:00.257Z,0.69
2023-02-09T00:48:27.282Z,0.87
2023-02-09T00:50:54.363Z,0.66
2023-02-09T00:53:22.442Z,0.75
2023-02-09T00:55:49.656Z,0.77
2023-02-09T00:58:17.100Z,0.88
2023-02-09T01:00:43.852Z,0.90
2023-02-09T01:03:11.112Z,0.91
2023-02-09T01:05:42.142Z,0.90
2023-02-09T01:08:08.910Z,0.94
2023-02-09T01:10:35.578Z,0.87
2023-02-09T01:13:03.231Z,0.75
2023-02-09T01:15:29.778Z,0.86
2023-02-09T01:17:57.972Z,0.78
2023-02-09T01:20:25.654Z,0.77
2023-02-09T01:22:52.871Z,0.41
2023-02-09T01:25:19.499Z,0.26
2023-02-09T01:27:46.036Z,0.15
2023-02-09T01:30:13.095Z,-0.03
2023-02-09T01:32:39.604Z,-0.07
2023-02-09T01:35:06.685Z,0.02
2023-02-09T01:37:34.679Z,0.04
2023-02-09T01:40:01.880Z,-0.01
2023-02-09T01:42:28.728Z,0.09
2023-02-09T01:45:21.414Z,-0.11
2023-02-09T01:47:56.980Z,0.01
2023-02-09T01:50:26.040Z,-0.01
2023-02-09T01:52:53.135Z,-0.10
2023-02-09T01:55:25.171Z,-0.12
2023-02-09T01:58:03.667Z,-0.18
2023-02-09T02:00:30.264Z,-0.02
2023-02-09T02:03:02.127Z,0.03
2023-02-09T02:05:29.888Z,0.13
2023-02-09T02:08:09.023Z,0.06
2023-02-09T02:10:35.607Z,-0.08
2023-02-09T02:13:02.976Z,0.13
2023-02-09T02:16:03.738Z,0.08
2023-02-09T02:18:33.408Z,-0.03
2023-02-09T02:21:18.107Z,0.20
2023-02-09T02:24:29.800Z,0.27
2023-02-09T02:27:09.723Z,0.12
2023-02-09T02:30:06.237Z,0.15
2023-02-09T02:32:32.700Z,0.26
2023-02-09T02:35:16.749Z,0.12
2023-02-09T02:37:55.638Z,-0.02
2023-02-09T02:40:41.072Z,0.15
2023-02-09T02:43:20.629Z,0.17
2023-02-09T02:46:10.947Z,0.13
2023-02-09T02:48:53.101Z,-0.25
2023-02-09T02:51:28.258Z,-0.05
2023-02-09T02:53:58.223Z,-0.10
2023-02-09T02:56:30.348Z,0.02
2023-02-09T02:58:59.784Z,-0.08
2023-02-09T03:01:33.996Z,0.08
2023-02-09T03:04:03.698Z,-0.09
2023-02-09T03:06:33.434Z,-0.13
2023-02-09T03:09:00.118Z,-0.15
2023-02-09T03:11:35.940Z,-0.02
2023-02-09T03:14:20.807Z,-0.06
2023-02-09T03:16:59.872Z,-0.58
2023-02-09T03:19:41.045Z,-0.15
2023-02-09T03:22:23.060Z,-0.15
2023-02-09T03:25:00.044Z,-0.16
2023-02-09T03:27:41.115Z,-0.17
2023-02-09T03:30:11.478Z,-0.11
2023-02-09T03:32:40.763Z,-0.12
2023-02-09T03:35:10.281Z,-0.24
2023-02-09T03:37:36.804Z,-0.21
2023-02-09T03:40:03.633Z,-0.09
2023-02-09T03:42:30.207Z,-0.09
2023-02-09T03:44:56.870Z,-0.21
2023-02-09T03:47:23.407Z,-0.19
2023-02-09T03:49:50.034Z,-0.09
2023-02-09T03:52:17.352Z,-0.26
2023-02-09T03:54:44.233Z,-0.14
2023-02-09T03:57:11.041Z,-0.14
2023-02-09T03:59:38.038Z,-0.20
2023-02-09T04:02:06.886Z,-0.22
2023-02-09T04:04:33.793Z,-0.25
2023-02-09T04:07:00.320Z,-0.21
2023-02-09T04:09:28.109Z,-0.21
2023-02-09T04:11:55.931Z,-0.24
2023-02-09T04:14:22.687Z,-0.23
2023-02-09T04:16:49.242Z,-0.21
2023-02-09T04:19:15.862Z,-0.24
2023-02-09T04:21:42.430Z,-0.26
2023-02-09T04:24:09.275Z,-0.23
2023-02-09T04:26:36.077Z,-0.36
2023-02-09T04:29:03.050Z,-0.36
2023-02-09T04:31:30.534Z,-0.29
2023-02-09T04:33:57.115Z,-0.29
2023-02-09T04:36:23.693Z,-0.26
2023-02-09T04:38:50.493Z,-0.32
2023-02-09T04:41:17.123Z,-0.25
2023-02-09T04:43:43.751Z,-0.33
2023-02-09T04:46:14.837Z,-0.25
2023-02-09T04:48:41.993Z,-0.30
2023-02-09T04:51:09.065Z,-0.40
2023-02-09T04:53:36.004Z,-0.53
2023-02-09T04:56:02.575Z,-0.37
2023-02-09T04:58:47.674Z,-0.42
2023-02-09T05:01:19.387Z,-0.43
2023-02-09T05:03:46.037Z,-0.51
2023-02-09T05:06:12.659Z,-0.40
2023-02-09T05:08:39.187Z,-0.45
2023-02-09T05:11:06.266Z,-0.37
2023-02-09T05:13:32.800Z,-0.40
2023-02-09T05:15:59.298Z,-0.38
2023-02-09T05:18:25.940Z,-0.24
2023-02-09T05:20:52.633Z,-0.31
2023-02-09T05:23:19.318Z,-0.46
2023-02-09T05:25:47.247Z,-0.43
2023-02-09T05:28:14.234Z,-0.28
2023-02-09T05:30:40.857Z,-0.26
2023-02-09T05:33:07.529Z,-0.21
2023-02-09T05:35:34.146Z,-0.21
2023-02-09T05:38:01.129Z,-0.22
2023-02-09T05:40:27.658Z,-0.25
2023-02-09T05:42:54.928Z,-0.29
2023-02-09T05:45:23.190Z,-0.17
2023-02-09T05:47:49.750Z,-0.28
2023-02-09T05:50:16.733Z,-0.31
2023-02-09T05:52:43.282Z,-0.37
2023-02-09T05:55:09.805Z,-0.25
2023-02-09T05:57:36.456Z,-0.24
2023-02-09T06:00:04.894Z,-0.40
2023-02-09T06:02:38.756Z,-0.31
2023-02-09T06:05:05.780Z,-0.24
2023-02-09T06:07:32.377Z,-0.31
2023-02-09T06:09:58.897Z,-0.26
2023-02-09T06:12:25.666Z,-0.19
2023-02-09T06:14:52.188Z,-0.19
2023-02-09T06:17:18.742Z,-0.12
2023-02-09T06:19:45.282Z,-0.13
2023-02-09T06:22:11.819Z,-0.06
2023-02-09T06:24:38.382Z,-0.13
2023-02-09T06:27:04.967Z,0.02
2023-02-09T06:29:31.601Z,0.00
2023-02-09T06:31:58.281Z,-0.02
2023-02-09T06:34:25.682Z,-0.11
2023-02-09T06:36:52.263Z,0.02
2023-02-09T06:39:18.810Z,0.00
2023-02-09T06:41:45.690Z,0.10
2023-02-09T06:44:13.027Z,0.15
2023-02-09T06:46:39.741Z,0.10
2023-02-09T06:49:06.485Z,0.24
2023-02-09T06:51:33.181Z,0.38
2023-02-09T06:53:59.955Z,0.30
2023-02-09T06:56:26.472Z,0.49
2023-02-09T06:58:53.252Z,0.51
2023-02-09T07:01:19.879Z,0.58
2023-02-09T07:03:46.438Z,0.59
2023-02-09T07:06:16.077Z,0.73
2023-02-09T07:08:43.379Z,0.91
2023-02-09T07:11:12.703Z,0.93
2023-02-09T07:13:39.441Z,1.18
2023-02-09T07:16:08.314Z,1.26
2023-02-09T07:18:35.594Z,1.44
2023-02-09T07:21:11.295Z,1.65
2023-02-09T07:23:38.982Z,1.81
2023-02-09T07:26:08.025Z,1.99
2023-02-09T07:28:36.010Z,2.16
2023-02-09T07:31:05.198Z,2.16
2023-02-09T07:33:32.565Z,2.38
2023-02-09T07:35:59.423Z,2.41
2023-02-09T07:38:26.220Z,2.45
2023-02-09T07:40:53.143Z,2.51
2023-02-09T07:43:19.817Z,2.39
2023-02-09T07:45:46.867Z,2.59
2023-02-09T07:48:13.679Z,2.79
2023-02-09T07:50:40.573Z,3.00
2023-02-09T07:53:07.931Z,3.15
2023-02-09T07:55:34.426Z,3.33
2023-02-09T07:58:01.070Z,3.31
2023-02-09T08:00:27.715Z,3.52
2023-02-09T08:02:54.923Z,3.72
2023-02-09T08:05:28.212Z,3.82
2023-02-09T08:07:55.978Z,3.86
2023-02-09T08:10:23.215Z,3.96
2023-02-09T08:13:02.897Z,3.97
2023-02-09T08:15:41.769Z,4.17
2023-02-09T08:18:22.905Z,4.27
2023-02-09T08:20:51.991Z,4.31
2023-02-09T08:23:26.756Z,4.51
2023-02-09T08:25:54.342Z,4.64
2023-02-09T08:28:22.734Z,4.76
2023-02-09T08:30:52.038Z,4.90
2023-02-09T08:33:18.612Z,5.01
2023-02-09T08:35:45.648Z,5.23
2023-02-09T08:38:12.379Z,5.28
2023-02-09T08:40:41.334Z,5.39
2023-02-09T08:43:08.502Z,5.32
2023-02-09T08:45:36.865Z,5.57
2023-02-09T08:48:04.408Z,5.69
2023-02-09T08:50:30.956Z,5.79
2023-02-09T08:52:57.901Z,6.00
2023-02-09T08:55:24.660Z,6.07
2023-02-09T08:57:51.326Z,6.20
2023-02-09T09:00:18.430Z,6.43
2023-02-09T09:02:45.000Z,6.50
2023-02-09T09:05:11.718Z,6.59
2023-02-09T09:07:38.280Z,6.71
2023-02-09T09:10:05.885Z,6.46
2023-02-09T09:12:32.436Z,6.55
2023-02-09T09:14:58.959Z,6.70
2023-02-09T09:17:25.585Z,6.65
2023-02-09T09:19:56.309Z,6.58
2023-02-09T09:22:23.608Z,6.93
2023-02-09T09:24:50.191Z,7.10
2023-02-09T09:27:16.719Z,6.66
2023-02-09T09:29:43.228Z,6.93
2023-02-09T09:32:15.883Z,7.21
2023-02-09T09:34:43.410Z,6.88
2023-02-09T09:37:10.010Z,6.82
2023-02-09T09:39:36.527Z,7.31
2023-02-09T09:42:05.999Z,7.49
2023-02-09T09:44:38.024Z,7.76
2023-02-09T09:47:10.428Z,7.89
2023-02-09T09:49:37.890Z,7.72
2023-02-09T09:52:31.994Z,7.87
2023-02-09T09:55:01.321Z,8.23
2023-02-09T09:57:30.274Z,8.34
2023-02-09T09:59:57.581Z,8.16
2023-02-09T10:02:31.721Z,8.29
2023-02-09T10:05:18.420Z,8.55
2023-02-09T10:07:53.817Z,8.57
2023-02-09T10:10:47.978Z,8.81
2023-02-09T10:13:33.707Z,8.66
2023-02-09T10:16:01.066Z,8.99
2023-02-09T10:18:30.122Z,8.94
2023-02-09T10:21:08.617Z,9.30
2023-02-09T10:23:43.069Z,9.44
2023-02-09T10:26:09.586Z,9.46
2023-02-09T10:28:49.171Z,9.33
2023-02-09T10:31:19.383Z,8.93
2023-02-09T10:33:50.296Z,9.50
2023-02-09T10:36:27.650Z,9.66
2023-02-09T10:39:19.171Z,9.80
2023-02-09T10:41:50.032Z,9.96
2023-02-09T10:44:26.847Z,10.24
2023-02-09T10:47:19.609Z,10.51
2023-02-09T10:50:10.581Z,10.78
2023-02-09T10:52:42.168Z,10.18
2023-02-09T10:55:24.413Z,11.01
2023-02-09T10:57:51.021Z,10.69
2023-02-09T11:00:17.494Z,10.83
2023-02-09T11:02:52.975Z,11.45
2023-02-09T11:05:22.513Z,11.34
2023-02-09T11:08:05.522Z,11.84
2023-02-09T11:10:35.464Z,13.18
2023-02-09T11:13:02.622Z,14.28
2023-02-09T11:15:40.739Z,16.12
2023-02-09T11:18:16.896Z,17.87
2023-02-09T11:21:13.681Z,20.06
2023-02-09T11:23:58.748Z,18.39
2023-02-09T11:27:17.995Z,16.89
2023-02-09T11:30:02.541Z,18.70
2023-02-09T11:32:41.871Z,21.04
2023-02-09T11:35:12.224Z,23.70
2023-02-09T11:38:01.659Z,23.04
2023-02-09T11:40:45.943Z,22.74
2023-02-09T11:43:17.635Z,23.76
2023-02-09T11:45:47.584Z,24.81
2023-02-09T11:48:25.711Z,24.38
2023-02-09T11:51:16.407Z,24.05
2023-02-09T11:54:07.434Z,22.16
2023-02-09T11:56:41.662Z,20.28
2023-02-09T11:59:18.778Z,19.79
2023-02-09T12:02:24.565Z,19.50
2023-02-09T12:04:51.119Z,18.24
2023-02-09T12:07:23.914Z,17.56
2023-02-09T12:09:59.365Z,15.78
2023-02-09T12:12:32.957Z,15.77
2023-02-09T12:15:15.983Z,15.17
2023-02-09T12:17:53.942Z,15.64
2023-02-09T12:20:29.438Z,14.99
2023-02-09T12:23:25.356Z,15.73
2023-02-09T12:26:00.876Z,15.64
2023-02-09T12:28:27.447Z,15.81
2023-02-09T12:30:58.144Z,15.22
2023-02-09T12:33:24.677Z,16.69
2023-02-09T12:36:07.854Z,19.36
2023-02-09T12:39:04.669Z,19.97
2023-02-09T12:41:34.563Z,20.98
2023-02-09T12:44:10.459Z,21.52
2023-02-09T12:46:51.901Z,20.36
2023-02-09T12:49:27.550Z,18.83
2023-02-09T12:52:03.195Z,18.62
2023-02-09T12:54:46.886Z,17.96
2023-02-09T12:57:16.409Z,19.70
2023-02-09T13:00:03.653Z,22.65
2023-02-09T13:02:49.931Z,24.21
2023-02-09T13:05:27.366Z,24.85
2023-02-09T13:08:18.300Z,23.91
2023-02-09T13:10:50.886Z,24.53
2023-02-09T13:13:24.205Z,24.28
2023-02-09T13:15:50.690Z,23.59
2023-02-09T13:18:23.300Z,23.14
2023-02-09T13:20:59.569Z,20.82
2023-02-09T13:23:35.154Z,20.31
2023-02-09T13:26:16.724Z,18.82
2023-02-09T13:28:43.581Z,19.27
2023-02-09T13:31:23.650Z,20.26
2023-02-09T13:33:55.861Z,21.99
2023-02-09T13:36:38.493Z,23.39
2023-02-09T13:39:16.765Z,25.87
2023-02-09T13:41:44.714Z,27.39
2023-02-09T13:44:26.630Z,26.70
2023-02-09T13:47:01.974Z,26.26
2023-02-09T13:49:30.049Z,24.53
2023-02-09T13:52:15.245Z,23.78
2023-02-09T13:54:43.939Z,23.82
2023-02-09T13:57:35.785Z,22.26
2023-02-09T14:00:21.675Z,21.03
2023-02-09T14:02:54.007Z,20.87
2023-02-09T14:05:29.541Z,20.10
2023-02-09T14:07:56.564Z,20.19
2023-02-09T14:10:25.777Z,19.32
2023-02-09T14:13:10.180Z,19.46
2023-02-09T14:16:04.083Z,18.18
2023-02-09T14:18:47.695Z,16.53
2023-02-09T14:21:23.478Z,16.46
2023-02-09T14:24:26.295Z,16.23
2023-02-09T14:26:54.554Z,15.68
2023-02-09T14:29:30.688Z,15.87
2023-02-09T14:32:32.021Z,15.98
2023-02-09T14:34:59.371Z,15.18
2023-02-09T14:37:29.528Z,14.86
2023-02-09T14:40:20.920Z,15.24
2023-02-09T14:43:02.678Z,15.57
2023-02-09T14:45:47.873Z,15.57
2023-02-09T14:48:28.932Z,17.59
2023-02-09T14:50:58.062Z,18.82
2023-02-09T14:53:28.282Z,18.97
2023-02-09T14:55:55.968Z,19.07
2023-02-09T14:58:28.304Z,18.37
2023-02-09T15:01:00.028Z,18.60
2023-02-09T15:03:27.571Z,17.98
2023-02-09T15:06:03.187Z,17.97
2023-02-09T15:08:33.112Z,18.50
2023-02-09T15:11:02.718Z,18.87
2023-02-09T15:13:31.178Z,19.03
2023-02-09T15:15:57.752Z,19.04
2023-02-09T15:18:26.382Z,18.42
2023-02-09T15:20:53.202Z,17.19
2023-02-09T15:23:19.777Z,16.30
2023-02-09T15:25:46.698Z,15.63
2023-02-09T15:28:28.986Z,15.07
2023-02-09T15:30:57.218Z,14.41
2023-02-09T15:33:26.072Z,14.11
2023-02-09T15:35:52.772Z,13.74
2023-02-09T15:38:19.798Z,13.10
2023-02-09T15:41:06.637Z,12.88
2023-02-09T15:43:52.101Z,12.61
2023-02-09T15:46:38.089Z,12.44
2023-02-09T15:49:05.632Z,12.02
2023-02-09T15:51:36.479Z,11.82
2023-02-09T15:54:16.021Z,11.91
2023-02-09T15:56:42.674Z,11.74
2023-02-09T15:59:17.920Z,11.62
2023-02-09T16:01:44.939Z,11.51
2023-02-09T16:04:14.381Z,11.42
2023-02-09T16:06:51.196Z,11.24
2023-02-09T16:09:21.832Z,11.07
2023-02-09T16:11:48.620Z,10.96
2023-02-09T16:14:20.791Z,10.90
2023-02-09T16:16:47.739Z,10.76
2023-02-09T16:19:14.481Z,10.56
2023-02-09T16:21:47.837Z,10.47
2023-02-09T16:24:45.062Z,10.39
2023-02-09T16:27:17.580Z,10.25
2023-02-09T16:29:44.231Z,10.14
2023-02-09T16:32:16.663Z,9.97
2023-02-09T16:34:44.348Z,9.78
2023-02-09T16:37:29.031Z,9.68
2023-02-09T16:39:57.997Z,9.59
2023-02-09T16:42:25.430Z,9.41
2023-02-09T16:44:52.973Z,9.29
2023-02-09T16:47:23.448Z,9.23
2023-02-09T16:49:59.457Z,9.08
2023-02-09T16:52:27.312Z,8.97
2023-02-09T16:54:58.152Z,8.88
2023-02-09T16:57:26.601Z,8.66
2023-02-09T16:59:54.230Z,8.53
2023-02-09T17:02:34.897Z,8.43
2023-02-09T17:05:13.563Z,8.34
2023-02-09T17:07:53.664Z,8.32
2023-02-09T17:10:24.203Z,8.24
2023-02-09T17:12:53.223Z,8.05
2023-02-09T17:15:29.997Z,8.05
2023-02-09T17:18:06.811Z,7.99
2023-02-09T17:20:41.077Z,7.82
2023-02-09T17:23:10.112Z,7.82
2023-02-09T17:25:36.716Z,7.74
2023-02-09T17:28:03.371Z,7.65
2023-02-09T17:30:32.806Z,7.69
2023-02-09T17:33:02.949Z,7.68
2023-02-09T17:35:58.006Z,7.54
2023-02-09T17:38:22.653Z,7.45
2023-02-09T17:40:50.748Z,7.46
2023-02-09T17:43:18.032Z,7.34
2023-02-09T17:45:49.486Z,7.30
2023-02-09T17:48:19.884Z,7.31
2023-02-09T17:50:52.536Z,7.28
2023-02-09T17:53:24.737Z,7.24
2023-02-09T17:55:53.904Z,7.24
2023-02-09T17:58:20.477Z,6.97
2023-02-09T18:00:47.051Z,6.83
2023-02-09T18:03:19.164Z,7.01
2023-02-09T18:05:50.592Z,6.87
2023-02-09T18:08:18.665Z,6.90
2023-02-09T18:10:45.226Z,6.86
2023-02-09T18:13:20.310Z,6.85
2023-02-09T18:15:48.765Z,6.85
2023-02-09T18:18:15.484Z,6.86
2023-02-09T18:20:42.475Z,6.58
2023-02-09T18:23:14.783Z,6.58
2023-02-09T18:25:41.373Z,6.51
2023-02-09T18:28:07.977Z,6.63
2023-02-09T18:30:39.030Z,6.56
2023-02-09T18:33:07.102Z,6.54
2023-02-09T18:35:36.831Z,6.49
2023-02-09T18:38:05.609Z,6.46
2023-02-09T18:40:32.508Z,6.40
2023-02-09T18:43:00.636Z,6.46
2023-02-09T18:45:28.521Z,6.32
2023-02-09T18:47:55.207Z,6.30
2023-02-09T18:50:27.179Z,6.23
2023-02-09T18:52:56.535Z,6.39
2023-02-09T18:55:25.566Z,6.39
2023-02-09T18:57:52.433Z,6.25
2023-02-09T19:00:20.344Z,6.20
2023-02-09T19:02:48.079Z,6.20
2023-02-09T19:05:16.600Z,6.04
2023-02-09T19:07:43.847Z,6.05
2023-02-09T19:10:14.105Z,5.90
2023-02-09T19:12:41.437Z,5.87
2023-02-09T19:15:08.653Z,5.78
2023-02-09T19:17:35.371Z,5.76
2023-02-09T19:20:04.220Z,5.77
2023-02-09T19:22:31.434Z,5.78
2023-02-09T19:24:58.398Z,5.82
2023-02-09T19:27:26.873Z,5.69
2023-02-09T19:29:55.622Z,5.68
2023-02-09T19:32:23.388Z,5.63
2023-02-09T19:34:51.259Z,5.54
2023-02-09T19:37:20.718Z,5.64
2023-02-09T19:40:00.335Z,5.54
2023-02-09T19:42:26.865Z,5.58
2023-02-09T19:44:54.437Z,5.56
2023-02-09T19:47:27.520Z,5.55
2023-02-09T19:49:58.214Z,5.34
2023-02-09T19:52:26.189Z,5.35
2023-02-09T19:54:52.760Z,5.37
2023-02-09T19:57:20.739Z,5.35
2023-02-09T19:59:47.734Z,5.30
2023-02-09T20:02:15.894Z,5.25
2023-02-09T20:04:43.096Z,5.31
2023-02-09T20:07:10.803Z,5.28
2023-02-09T20:09:37.481Z,5.28
2023-02-09T20:12:04.618Z,5.15
2023-02-09T20:14:33.477Z,5.23
2023-02-09T20:17:00.601Z,5.07
2023-02-09T20:19:27.596Z,5.09
2023-02-09T20:21:54.162Z,5.04
2023-02-09T20:24:20.747Z,5.02
2023-02-09T20:26:48.063Z,5.11
2023-02-09T20:29:16.649Z,5.09
2023-02-09T20:31:43.329Z,5.06
2023-02-09T20:34:12.754Z,5.15
2023-02-09T20:36:41.072Z,5.13
2023-02-09T20:39:10.828Z,5.13
2023-02-09T20:41:37.358Z,5.10
2023-02-09T20:44:22.478Z,5.04
2023-02-09T20:46:58.211Z,5.03
2023-02-09T20:49:30.976Z,4.99
2023-02-09T20:51:58.103Z,5.02
2023-02-09T20:54:25.083Z,4.89
2023-02-09T20:56:51.690Z,4.90
2023-02-09T20:59:18.265Z,4.82
2023-02-09T21:01:45.907Z,5.00
2023-02-09T21:04:12.604Z,4.81
2023-02-09T21:06:39.256Z,4.82
2023-02-09T21:09:08.214Z,4.82
2023-02-09T21:11:34.810Z,4.75
2023-02-09T21:14:01.432Z,4.79
2023-02-09T21:16:28.994Z,4.86
2023-02-09T21:18:55.511Z,4.74
2023-02-09T21:21:22.301Z,4.75
2023-02-09T21:23:48.890Z,4.74
2023-02-09T21:26:17.632Z,4.71
2023-02-09T21:28:45.232Z,4.72
2023-02-09T21:31:14.177Z,4.73
2023-02-09T21:33:40.774Z,4.70
2023-02-09T21:36:07.824Z,4.64
2023-02-09T21:38:41.357Z,4.66
2023-02-09T21:41:09.026Z,4.64
2023-02-09T21:43:35.658Z,4.61
2023-02-09T21:46:02.347Z,4.63
2023-02-09T21:48:28.904Z,4.55
2023-02-09T21:50:55.722Z,4.58
2023-02-09T21:53:22.380Z,4.54
2023-02-09T21:55:48.915Z,4.59
2023-02-09T21:58:15.468Z,4.53
2023-02-09T22:00:42.377Z,4.53
2023-02-09T22:03:09.466Z,4.51
2023-02-09T22:05:35.955Z,4.44
2023-02-09T22:08:02.475Z,4.49
2023-02-09T22:10:29.022Z,4.47
2023-02-09T22:12:55.553Z,4.44
2023-02-09T22:15:22.254Z,4.45
2023-02-09T22:17:49.170Z,4.43
2023-02-09T22:20:15.744Z,4.41
2023-02-09T22:22:45.184Z,4.39
2023-02-09T22:25:11.714Z,4.40
2023-02-09T22:27:38.309Z,4.44
2023-02-09T22:30:05.041Z,4.41
2023-02-09T22:32:31.608Z,4.24
2023-02-09T22:34:58.124Z,4.21
2023-02-09T22:37:24.703Z,4.15
2023-02-09T22:39:51.206Z,4.24
2023-02-09T22:42:17.728Z,4.15
2023-02-09T22:44:44.257Z,4.18
2023-02-09T22:47:10.863Z,4.12
2023-02-09T22:49:37.472Z,4.10
2023-02-09T22:52:04.089Z,4.15
2023-02-09T22:54:30.725Z,4.27
2023-02-09T22:56:57.243Z,4.29
2023-02-09T22:59:23.885Z,4.28
2023-02-09T23:01:51.009Z,4.31
2023-02-09T23:04:17.656Z,4.29
2023-02-09T23:06:44.343Z,4.20
2023-02-09T23:09:12.544Z,4.21
2023-02-09T23:11:39.171Z,4.12
2023-02-09T23:14:10.012Z,4.15
2023-02-09T23:16:39.502Z,4.17
2023-02-09T23:19:08.827Z,4.26
2023-02-09T23:21:38.230Z,4.38
2023-02-09T23:24:05.722Z,4.45
2023-02-09T23:26:32.966Z,4.48
2023-02-09T23:29:01.501Z,4.39
2023-02-09T23:31:28.808Z,4.50
2023-02-09T23:33:55.503Z,4.52
2023-02-09T23:36:25.031Z,4.44
2023-02-09T23:38:57.517Z,4.47
2023-02-09T23:41:25.024Z,4.55
2023-02-09T23:43:52.573Z,4.58
2023-02-09T23:46:22.504Z,4.52
2023-02-09T23:48:49.889Z,4.57
2023-02-09T23:51:19.802Z,4.68
2023-02-09T23:53:47.752Z,4.60
2023-02-09T23:56:17.290Z,4.69
2023-02-09T23:58:47.204Z,4.69
